This is the latest recevied weather packets stored in our database for station/object KA9CBS. If no packets are shown the sender has not sent any weather packets the latest 10 day(s).
| Time | Temp. | Humidity | Pressure | Rain* | Wind** | Luminosity | Snow |
|---|---|---|---|---|---|---|---|
| 1787556720 | 16.67° C | 89% | 1019.2 hPa | 0 mm | - | 0 W/m² | - |
| 1787556415 | 16.67° C | 90% | 1019.2 hPa | 0 mm | - | 0 W/m² | - |
| 1787556111 | 16.67° C | 90% | 1019.3 hPa | 0 mm | - | 0 W/m² | - |
| 1787555806 | 16.67° C | 89% | 1019 hPa | 0 mm | - | 0 W/m² | - |
| 1787555505 | 17.22° C | 87% | 1019 hPa | 0 mm | - | 0 W/m² | - |
| 1787555201 | 16.67° C | 88% | 1019.1 hPa | 0 mm | - | 0 W/m² | - |
| 1787554891 | 16.67° C | 90% | 1018.9 hPa | 0 mm | - | 0 W/m² | - |
| 1787554587 | 16.67° C | 91% | 1019.1 hPa | 0 mm | - | 0 W/m² | - |
| 1787554286 | 16.11° C | 94% | 1019.1 hPa | 0 mm | - | 0 W/m² | - |
| 1787553981 | 16.11° C | 95% | 1019.2 hPa | 0 mm | - | 0 W/m² | - |
| 1787553676 | 16.11° C | 95% | 1019.2 hPa | 0 mm | - | 0 W/m² | - |
| 1787553372 | 16.11° C | 95% | 1019.1 hPa | 0 mm | - | 0 W/m² | - |
| 1787553069 | 16.11° C | 95% | 1019.3 hPa | 0 mm | - | 0 W/m² | - |
| 1787552766 | 16.11° C | 95% | 1019.5 hPa | 0 mm | - | 0 W/m² | - |
| 1787552462 | 16.11° C | 96% | 1019.4 hPa | 0 mm | - | 0 W/m² | - |
| 1787552157 | 15.56° C | 96% | 1019.5 hPa | 0 mm | - | 0 W/m² | - |
| 1787551855 | 15.56° C | 95% | 1019.4 hPa | 0 mm | - | 0 W/m² | - |
| 1787551550 | 15.56° C | 94% | 1019.5 hPa | 0 mm | - | 0 W/m² | - |
| 1787551246 | 15.56° C | 93% | 1019.3 hPa | 0 mm | - | 0 W/m² | - |
| 1787550940 | 16.11° C | 92% | 1019.4 hPa | 0 mm | - | 0 W/m² | - |
| 1787550635 | 16.11° C | 92% | 1019.5 hPa | 0 mm | - | 0 W/m² | - |
| 1787550332 | 16.67° C | 91% | 1019.5 hPa | 0 mm | - | 0 W/m² | - |
| 1787550027 | 16.67° C | 91% | 1019.6 hPa | 0 mm | - | 0 W/m² | - |
| 1787549722 | 16.67° C | 90% | 1019.4 hPa | 0 mm | - | 0 W/m² | - |
| 1787549418 | 17.22° C | 90% | 1019.3 hPa | 0 mm | - | 0 W/m² | - |
* Rain latest hour (hover to see other rain measurements)
** Current wind speed in m/s (hover to see current wind gust speed)